Time;durP1;ratioP1;P1;durP2;ratioP2;P2;SDS_P1;SDS_P2;PMS_P1;PMS_P2;Temp;Humidity;BMP_temperature;BMP_pressure;BME280_temperature;BME280_humidity;BME280_pressure;Samples;Min_cycle;Max_cycle;Signal;HPM_P1;HPM_P2
2021/07/14 00:01:37;;;;;;;27.88;23.13;;;;;;;-145.42;100.00;56955.94;3569500;40;20112;-51
2021/07/14 00:05:06;;;;;;;26.73;22.17;;;;;;;-145.42;100.00;56955.94;3573757;40;20065;-49
2021/07/14 00:08:32;;;;;;;27.20;22.02;;;;;;;-145.42;100.00;56955.94;3573373;40;20955;-50
2021/07/14 00:12:01;;;;;;;28.52;23.50;;;;;;;-145.42;100.00;56955.94;3573492;40;20051;-51
2021/07/14 00:22:41;;;;;;;31.85;23.63;;;;;;;-145.42;100.00;56955.94;3569727;40;20036;-49
2021/07/14 00:26:08;;;;;;;27.10;24.20;;;;;;;-145.42;100.00;56955.94;3573537;40;20057;-51
2021/07/14 00:29:36;;;;;;;30.80;23.80;;;;;;;-145.42;100.00;56955.94;3573261;40;20103;-51
2021/07/14 00:33:02;;;;;;;;;;;;;;;-145.42;100.00;56955.94;3574068;40;20069;-49
2021/07/14 00:36:27;;;;;;;27.10;24.15;;;;;;;-145.42;100.00;56955.94;3573608;40;19952;-49
2021/07/14 00:39:56;;;;;;;30.63;25.35;;;;;;;-145.42;100.00;56955.94;3573206;40;20100;-50
2021/07/14 00:43:24;;;;;;;31.80;25.38;;;;;;;-145.42;100.00;56955.94;3573346;40;20053;-51
2021/07/14 00:46:52;;;;;;;29.73;26.27;;;;;;;-145.42;100.00;56955.94;3573687;40;20069;-47
2021/07/14 00:50:18;;;;;;;31.35;26.83;;;;;;;-145.42;100.00;56955.94;3573232;40;20065;-49
2021/07/14 00:53:44;;;;;;;34.63;29.50;;;;;;;-145.42;100.00;56955.94;3573415;40;20861;-48
2021/07/14 00:57:10;;;;;;;32.03;25.90;;;;;;;-145.42;100.00;56955.94;3573457;40;20085;-47
2021/07/14 01:00:35;;;;;;;29.40;26.23;;;;;;;-145.42;100.00;56955.94;3573435;40;20760;-51
2021/07/14 01:04:15;;;;;;;35.58;30.00;;;;;;;-145.42;100.00;56955.94;3573099;40;20092;-47
2021/07/14 01:08:02;;;;;;;44.40;32.83;;;;;;;-145.42;100.00;56955.94;3573839;40;20053;-53
2021/07/14 01:11:47;;;;;;;35.47;30.30;;;;;;;-145.42;100.00;56955.94;3573481;40;20064;-53
2021/07/14 01:15:17;;;;;;;38.05;30.20;;;;;;;-145.42;100.00;56955.94;3572940;40;20056;-50
2021/07/14 01:18:52;;;;;;;43.13;34.65;;;;;;;-145.42;100.00;56955.94;3573054;40;20458;-53
2021/07/14 01:22:37;;;;;;;41.78;34.47;;;;;;;-145.42;100.00;56955.94;3573247;40;20063;-52
2021/07/14 01:26:05;;;;;;;39.55;31.02;;;;;;;-145.42;100.00;56955.94;3573060;40;20455;-49
2021/07/14 01:29:39;;;;;;;43.83;33.22;;;;;;;-145.42;100.00;56955.94;3572723;40;20125;-47
2021/07/14 01:33:08;;;;;;;48.10;31.15;;;;;;;-145.42;100.00;56955.94;3573323;40;20351;-47
2021/07/14 01:36:38;;;;;;;44.63;32.10;;;;;;;-145.42;100.00;56955.94;3573151;40;20049;-49
2021/07/14 01:40:05;;;;;;;43.67;33.28;;;;;;;-145.42;100.00;56955.94;3573098;40;20057;-48
2021/07/14 01:43:38;;;;;;;54.55;36.00;;;;;;;-145.42;100.00;56955.94;3572781;40;20089;-48
2021/07/14 01:47:05;;;;;;;47.13;33.28;;;;;;;-145.42;100.00;56955.94;3573029;40;20049;-50
2021/07/14 01:50:32;;;;;;;53.83;37.58;;;;;;;-145.42;100.00;56955.94;3572694;40;20115;-53
2021/07/14 01:54:03;;;;;;;51.03;37.35;;;;;;;-145.42;100.00;56955.94;3573002;40;20108;-48
2021/07/14 01:57:33;;;;;;;43.58;33.60;;;;;;;-145.42;100.00;56955.94;3573293;40;20064;-50
2021/07/14 02:00:59;;;;;;;39.72;32.67;;;;;;;-145.42;100.00;56955.94;3572823;40;20066;-54
2021/07/14 02:04:32;;;;;;;40.05;30.80;;;;;;;-145.42;100.00;56955.94;3572711;40;20382;-50
2021/07/14 02:08:01;;;;;;;39.03;29.65;;;;;;;-145.42;100.00;56955.94;3573046;40;20085;-52
2021/07/14 02:11:29;;;;;;;40.50;31.88;;;;;;;-145.42;100.00;56955.94;3572490;40;20451;-47
2021/07/14 02:15:03;;;;;;;44.28;34.35;;;;;;;-145.42;100.00;56955.94;3572746;40;20470;-50
2021/07/14 02:18:41;;;;;;;48.30;35.38;;;;;;;-145.42;100.00;56955.94;3572649;40;20687;-49
2021/07/14 02:22:06;;;;;;;;;;;;;;;-145.42;100.00;56955.94;3573478;40;20112;-46
2021/07/14 02:25:33;;;;;;;49.65;36.83;;;;;;;-145.42;100.00;56955.94;3572939;40;19940;-50
2021/07/14 02:28:59;;;;;;;49.47;36.15;;;;;;;-145.42;100.00;56955.94;3572657;40;20060;-49
2021/07/14 02:32:25;;;;;;;59.60;39.45;;;;;;;-145.42;100.00;56955.94;3572543;40;20369;-49
2021/07/14 02:35:56;;;;;;;48.08;34.53;;;;;;;-145.42;100.00;56955.94;3572481;40;20101;-51
2021/07/14 02:39:28;;;;;;;47.08;36.58;;;;;;;-145.42;100.00;56955.94;3572432;40;20060;-48
2021/07/14 02:42:57;;;;;;;50.60;37.40;;;;;;;-145.42;100.00;56955.94;3574185;40;20097;-48
2021/07/14 02:46:26;;;;;;;45.10;34.33;;;;;;;-145.42;100.00;56955.94;3573878;40;20080;-51
2021/07/14 02:49:54;;;;;;;50.20;35.92;;;;;;;-145.42;100.00;56955.94;3573573;40;20134;-48
2021/07/14 02:53:28;;;;;;;50.63;36.88;;;;;;;-145.42;100.00;56955.94;3574181;40;20085;-55
2021/07/14 02:57:02;;;;;;;51.85;36.90;;;;;;;-145.42;100.00;56955.94;3573937;40;20064;-47
2021/07/14 03:00:30;;;;;;;53.83;39.80;;;;;;;-145.42;100.00;56955.94;3574098;40;20097;-49
2021/07/14 03:03:56;;;;;;;;;;;;;;;-145.42;100.00;56955.94;3574815;40;20076;-52
2021/07/14 03:07:25;;;;;;;46.75;33.60;;;;;;;-145.42;100.00;56955.94;3574124;40;19937;-49
2021/07/14 03:10:53;;;;;;;50.58;35.67;;;;;;;-145.42;100.00;56955.94;3574028;40;20115;-47
2021/07/14 03:14:19;;;;;;;52.27;37.07;;;;;;;-145.42;100.00;56955.94;3574247;40;20155;-49
2021/07/14 03:17:45;;;;;;;50.38;34.65;;;;;;;-145.42;100.00;56955.94;3573761;40;20423;-48
2021/07/14 03:21:14;;;;;;;40.13;29.75;;;;;;;-145.42;100.00;56955.94;3573856;40;20045;-48
2021/07/14 03:24:41;;;;;;;35.38;25.67;;;;;;;-145.42;100.00;56955.94;3570163;40;20073;-52
2021/07/14 03:28:07;;;;;;;45.95;31.20;;;;;;;-145.42;100.00;56955.94;3573491;40;20738;-51
2021/07/14 03:31:33;;;;;;;38.33;28.23;;;;;;;-145.42;100.00;56955.94;3573614;40;20124;-51
2021/07/14 03:34:59;;;;;;;39.25;27.23;;;;;;;-145.42;100.00;56955.94;3574144;40;20053;-48
2021/07/14 03:38:33;;;;;;;30.05;21.35;;;;;;;-145.42;100.00;56955.94;3573629;40;20077;-51
2021/07/14 03:42:00;;;;;;;30.17;19.10;;;;;;;-145.42;100.00;56955.94;3573740;40;20088;-48
2021/07/14 03:45:26;;;;;;;30.23;21.98;;;;;;;-145.42;100.00;56955.94;3573648;40;20056;-52
2021/07/14 03:48:53;;;;;;;31.95;22.55;;;;;;;-145.42;100.00;56955.94;3573861;40;20579;-49
2021/07/14 03:52:22;;;;;;;32.67;21.75;;;;;;;-145.42;100.00;56955.94;3573278;40;20096;-49
2021/07/14 03:55:48;;;;;;;24.83;17.38;;;;;;;-145.42;100.00;56955.94;3573694;40;20084;-51
2021/07/14 03:59:15;;;;;;;28.05;17.65;;;;;;;-145.42;100.00;56955.94;3573547;40;20077;-52
2021/07/14 04:02:44;;;;;;;30.33;19.20;;;;;;;-145.42;100.00;56955.94;3569966;40;20084;-49
2021/07/14 04:06:14;;;;;;;30.98;18.80;;;;;;;-145.42;100.00;56955.94;3573034;40;20063;-48
2021/07/14 04:09:45;;;;;;;31.15;20.95;;;;;;;-145.42;100.00;56955.94;3569567;40;20407;-48
2021/07/14 04:13:11;;;;;;;35.60;22.98;;;;;;;-145.42;100.00;56955.94;3573539;40;20085;-53
2021/07/14 04:16:37;;;;;;;32.05;20.55;;;;;;;-145.42;100.00;56955.94;3573400;40;20049;-52
2021/07/14 04:20:03;;;;;;;36.22;22.55;;;;;;;-145.42;100.00;56955.94;3571476;40;20049;-47
2021/07/14 04:23:30;;;;;;;35.28;21.17;;;;;;;-145.42;100.00;56955.94;3573162;40;20084;-47
2021/07/14 04:26:56;;;;;;;33.83;20.50;;;;;;;-145.42;100.00;56955.94;3573034;40;20346;-53
2021/07/14 04:30:22;;;;;;;28.27;20.13;;;;;;;-145.42;100.00;56955.94;3573300;40;20380;-53
2021/07/14 04:33:47;;;;;;;26.33;19.08;;;;;;;-145.42;100.00;56955.94;3573457;40;20399;-49
